Racecast

Cayla Champion

Temperance Bedford (MI) · 12 · SECMI D1MONROE · Compare head to head

Athlete rating 124.0 2017 XC season
Best race 124.3 XC
Races 84
Seasons 6 2013 — 2018

RankedNation #16702·MI #1976·MI D1 #1172·SEC #125·Team #59 ?

Rating scale ?

Cross Country

2017 XC 117.1

Temperance Bedford (MI) · Grade 12

Date Meet Event Result Place Rating Difficulty PR/SR Flags
2017-10-28 Lake Erie Metro Park OFFICIAL 5000m 22:10.6 20th · 4th on team 123.2 +0.055 ★CR SR CSR RSR
2017-10-19 Hudson Mills Metropark - OFFICIAL 5000m 22:26.6 29th · 4th on team 120.6 +0.036 CSR
2017-10-10 Indian Creek OFFICIAL 5000m 22:25.6 4th · 4th on team 120.6 +0.039 ★CR SR CSR RSR
2017-10-07 Portage West MS 5000m 24:34.1 169th · 6th on team 111.0 +0.038 CSR
2017-09-30 Lake Erie Metro Park OFFICIAL 5000m 23:28.2 11th · 8th on team 115.8 +0.055 CSR RSR
2017-08-26 Boy Scout Camp Lakota 5000m 23:08.7 58th · 10th on team 111.6 -0.003 ★CR SR CSR RSR

2016 XC 114.4

Temperance Bedford (MI) · Grade 11

Date Meet Event Result Place Rating Difficulty PR/SR Flags
2016-10-20 Hudson Mills Metropark - OFFICIAL 5000m 21:51.3 23rd · 4th on team 122.7 +0.036
2016-10-15 Hudson Mills Metropark - OFFICIAL 5000m 21:51.1 57th · 5th on team 124.0 +0.036 ★CR CSR
2016-10-08 Portage West MS 5000m 21:42 224th · 4th on team 124.3 +0.038 ★PR ★CR ★R SR CSR RSR
2016-10-01 Pearson's Metro Park 5000m 22:11.1 53rd · 6th on team 114.2 -0.022 PR ★CR SR CSR
2016-09-27 Pioneer HS 5000m 23:05.4 32nd · 2nd on team 121.1 +0.067 ★CR R SR CSR RSR
2016-09-17 Springfield Oaks County Park OFFICIAL 5000m 26:04 82nd · 6th on team 109.3 +0.067 CSR
2016-09-13 Heritage Park (Adrian) OFFICIAL 5000m 23:19.4 18th · 2nd on team 121.0 +0.084 ★CR R SR CSR RSR
2016-09-10 Hedges Boyer Park 5000m 24:51.7 132nd · 3rd on team 101.3 -0.036 ★CR SR CSR
2016-08-27 Boy Scout Camp Lakota 5000m 25:30 85th · 9th on team 101.4 -0.003 CR SR CSR
2016-08-25 Heritage Park (Adrian) OFFICIAL 5000m 27:01.3 6th · 4th on team 104.4 +0.084 SR CSR RSR

2015 XC 109.7

Temperance Bedford (MI) · Grade 10

Date Meet Event Result Place Rating Difficulty PR/SR Flags
2015-10-31 Lake Erie Metro Park OFFICIAL 5000m 22:53 40th · 4th on team 118.9 +0.055 CR R CSR RSR
2015-10-22 Hudson Mills Metropark - OFFICIAL 5000m 23:26 55th · 7th on team 114.3 +0.036
2015-10-17 Hudson Mills Metropark - OFFICIAL 5000m 22:31.6 51st · 3rd on team 118.6 +0.036 PR CR R SR CSR RSR
2015-10-03 Pearson's Metro Park 5000m 24:25.3 18th · 18th on team 103.6 -0.022 CR CSR
2015-09-29 Indian Creek OFFICIAL 5000m 24:18.2 45th · 6th on team 110.5 +0.039 PR CR R SR CSR RSR
2015-09-19 Springfield Oaks County Park OFFICIAL 5000m 25:52 28th · 9th on team 107.1 +0.067 ★CR SR CSR RSR
2015-08-29 Boy Scout Camp Lakota 5000m 25:57.55 107th · 15th on team 98.7 -0.003 CR SR CSR
2015-08-27 Heritage Park (Adrian) OFFICIAL 5000m 26:01.5 60th · 13th on team 105.7 +0.084 CR SR CSR RSR

2014 XC 98.3

Temperance Bedford (MI) · Grade 9

Date Meet Event Result Place Rating Difficulty PR/SR Flags
2014-10-25 Lake Erie Metro Park OFFICIAL 5000m 26:59.8 109th · 17th on team 101.6 +0.055 CR CSR
2014-10-04 Portage West MS 5000m 25:36 192nd · 12th on team 104.7 +0.038 PR CR SR CSR RSR
2014-09-09 Hudson Mills Metropark - OFFICIAL 5000m 27:37.5 112th · 13th on team 97.6 +0.036 PR CR SR CSR RSR
2014-09-06 Hedges Boyer Park 5000m 27:42.7 432nd · 15th on team 89.5 -0.036 PR CR SR CSR RSR
2014-08-28 Heritage Park (Adrian) OFFICIAL 5000m 30:18.7 60th · 22nd on team +0.084 PR CR SR CSR

2013 XC 109.8

Temperance Bedford (MI) · Grade 8

Date Meet Event Result Place Rating Difficulty PR/SR Flags
2013-10-19 Hudson Mills Metropark - OFFICIAL 3218m 17:39.4 129th · 5th on team 110.3 +0.062 ★PR ★CR R SR CSR RSR
2013-09-13 Forest Akers East Golf Course 3200m 17:29 192nd · 14th on team 109.3 +0.062 ★PR ★CR R SR CSR RSR

Track & Field

2018 TF

Temperance Bedford (MI) · Grade 12

Date Meet Event Result Place Rating Difficulty PR/SR Flags
2018-05-26 2018 MITCA D1 Team State Championships 100mh 19.94 29th · 3rd on team -0.028 SR
2018-05-26 2018 MITCA D1 Team State Championships 300mh 57.51 28th · 2nd on team -0.028
2018-05-18 MHSAA LP Region 03-1 @ Saline 100mh 22.85 29th · 3rd on team -0.042
2018-05-11 SEC Red Championship 300mh 55.98 13th · 3rd on team -0.034
2018-05-11 SEC Red Championship 100mh 20.19 15th · 3rd on team -0.034 SR
2018-05-07 SEC Red: Huron @ Bedford 300mh 55.64 2nd · 2nd on team -0.033 SR
2018-05-01 SEC Red: Bedford & Skyline @ Monroe 100mh 21.15 9th · 3rd on team -0.032 SR
2018-05-01 SEC Red: Bedford & Skyline @ Monroe 300mh 58.65 6th · 2nd on team -0.032
2018-04-24 Saline/Bedford Dual 100mh 22.14 9th · 4th on team -0.042 SR
2018-04-24 Saline/Bedford Dual 200m 32.86 19th · 10th on team -0.042 SR
2018-04-24 Saline/Bedford Dual 300mh 57.89 4th · 2nd on team -0.042
2018-04-10 SEC Red Division - Pioneer @ Bedford 300mh 57.44 3rd · 1st on team -0.033 SR
2018-04-10 SEC Red Division - Pioneer @ Bedford 200m 33.54 16th · 7th on team -0.033 SR

2017 TF 107.1

Temperance Bedford (MI) · Grade 11

Date Meet Event Result Place Rating Difficulty PR/SR Flags
2017-05-17 River Rat GIRLS JV Invite 300mh 51.6 1st · 1st on team -0.034 ★PR SR
2017-05-17 River Rat GIRLS JV Invite 3200m 14:02.65 3rd · 1st on team 107.1 -0.034 ★PR SR RSR
2017-05-17 River Rat GIRLS JV Invite 100mh 19.28 2nd · 1st on team -0.034 ★PR SR
2017-04-25 SEC Red: Bedford @ Skyline 100mh 21.57 8th · 5th on team -0.033 SR
2017-03-28 SEC Red: Bedford @ Pioneer 300mh 57.1 4th · 2nd on team -0.028 PR SR
2017-03-28 SEC Red: Bedford @ Pioneer 200m 32.04 11th · 6th on team -0.028 SR

2016 TF

Temperance Bedford (MI) · Grade 10

Date Meet Event Result Place Rating Difficulty PR/SR Flags
2016-05-13 SEC Red Division Finals 400m 1:10.64 17th · 3rd on team -0.033
2016-05-03 SEC Tri: Huron/Skyline @ Bedford 400m 1:10.86 6th · 2nd on team -0.033
2016-04-26 Bedford @ Monroe 100mh 20.34 4th · 3rd on team -0.032 PR SR
2016-04-26 Bedford @ Monroe 100m 14.94 4th · 3rd on team -0.032 ★PR SR
2016-04-26 Bedford @ Monroe 200m 30.04 2nd · 2nd on team -0.032 ★PR SR
2016-04-26 Bedford @ Monroe 400m 1:09.04 1st · 1st on team -0.032 ★PR SR
2016-04-19 Saline @ Bedford 200m 31.35 3rd · 3rd on team -0.033
2016-04-19 Saline @ Bedford 100m 15.61 12th · 8th on team -0.033
2016-04-19 Saline @ Bedford 300mh 59.75 8th · 4th on team -0.033 PR SR
2016-04-12 SEC: Bedford @ Pioneer 200m 31.23 10th · 5th on team -0.028 PR SR
2016-04-12 SEC: Bedford @ Pioneer 300mh 1:02.76 7th · 4th on team -0.028 PR SR
2016-04-12 SEC: Bedford @ Pioneer 100mh 20.95 5th · 3rd on team -0.028 PR SR
2016-04-12 SEC: Bedford @ Pioneer 100m 15.18 12th · 9th on team -0.028 PR SR

2015 TF

Temperance Bedford (MI) · Grade 9

Date Meet Event Result Place Rating Difficulty PR/SR Flags
2015-04-28 SEC: Skyline @ Bedford 200m 32.24 16th · 12th on team -0.033
2015-04-28 SEC: Skyline @ Bedford 100mh 21.04 11th · 8th on team -0.033 PR SR
2015-04-21 SEC: Bedford @ Pioneer 200m 32.06 20th · 7th on team -0.028 PR SR
2015-04-21 SEC: Bedford @ Pioneer 100mh 21.67 9th · 7th on team -0.028 PR SR
2015-04-21 SEC: Bedford @ Pioneer 300mh 1:03.65 9th · 6th on team -0.028 PR SR

2014 TF 94.9

Temperance Bedford (MI) · Grade 8

Date Meet Event Result Place Rating Difficulty PR/SR Flags
2014-05-08 Bedford vs Adrian 55mh 11.24 3rd · 3rd on team -0.033 ★PR SR
2014-05-08 Bedford vs Adrian 200mh 36.64 3rd · 3rd on team -0.033
2014-05-05 Bedford vs Ypsilanti 55mh 12.44 3rd · 3rd on team -0.029
2014-05-05 Bedford vs Ypsilanti 200mh 34.74 2nd · 2nd on team -0.029 ★PR SR
2014-04-28 Bedford vs Monroe 200mh 37.84 2nd · 2nd on team -0.033
2014-04-28 Bedford vs Monroe 55mh 11.74 4th · 4th on team -0.033
2014-04-16 Bedford TT 400m 1:21.14 16th · 16th on team -0.033 PR SR
2014-04-16 Bedford TT 200m 33.24 13th · 13th on team -0.033 PR SR
2014-04-16 Bedford TT 800m 3:31 16th · 16th on team 94.6 -0.033 ★PR SR RSR
2014-04-16 Bedford TT 1600m 7:50 20th · 20th on team 95.1 -0.033 ★PR SR RSR
2014-04-16 Bedford TT 100m 15.24 22nd · 22nd on team -0.033 PR SR
2014-04-14 Bedford vs Tecumseh 55mh 11.54 6th · 6th on team -0.033 PR SR
2014-04-14 Bedford vs Tecumseh 200mh 36.94 3rd · 3rd on team -0.033 PR SR
2014-04-14 Bedford vs Tecumseh 100m 15.64 2nd · 2nd on team -0.033 PR SR

2013 TF

Temperance Bedford (MI) · Grade 7

Date Meet Event Result Place Rating Difficulty PR/SR Flags
2013-05-09 Bedford vs Lincoln 70m 12.14 11th · 11th on team -0.033 ★PR SR
2013-05-09 Bedford vs Lincoln 55mh 12.64 6th · 6th on team -0.033 PR SR